Flight Track Log - Related Links

Times and Time Zones

All times are in EDT time to prevent confusion due to time zone crossing. See the ASQ5685 flight status page for this flight to view local times or setup timezone preferences in your user account.

Time Position Orientation Groundspeed Altitude Reporting Facility
EDT Latitude Longitude Course Direction KTS MPH feet Rate Location/Type
Sun 09:32:53 AM 33.6333 -84.3833 53° Northeast 175 201 2,300  Level Atlanta TRACON
Sun 09:33:53 AM 33.6333 -84.3000 90° East 257 296 4,000 2,105 Climbing Atlanta TRACON
Sun 09:34:47 AM 33.6333 -84.2167 90° East 268 308 6,300 2,380 Climbing Atlanta TRACON
Sun 09:35:00 AM 33.7618 -83.9583 54° Northeast  Level FlightAware Approximate
Sun 09:35:54 AM 33.6336 -84.1186 90° East 304 350 8,800  Level Atlanta Center
Sun 09:36:00 AM 33.8213 -83.8591 54° Northeast  Level FlightAware Approximate
Sun 09:36:54 AM 33.6817 -84.0389 54° Northeast 295 339 10,600  Level Atlanta Center
Sun 09:37:00 AM 33.8828 -83.7618 48° Northeast  Level FlightAware Approximate
Sun 09:37:54 AM 33.7358 -83.9639 49° Northeast 303 349 11,400  Level Atlanta Center
Sun 09:38:00 AM 33.9475 -83.6673 53° Northeast  Level FlightAware Approximate
Sun 09:38:54 AM 33.8044 -83.8764 47° Northeast 341 392 12,900  Level Atlanta Center
Sun 09:39:54 AM 33.8775 -83.7836 47° Northeast 365 420 14,100 1,250 Climbing Atlanta Center
Sun 09:40:54 AM 33.9461 -83.6883 49° Northeast 370 426 15,400 1,300 Climbing Atlanta Center
Sun 09:41:54 AM 34.0125 -83.5828 53° Northeast 385 443 16,700 1,200 Climbing Atlanta Center
Sun 09:42:54 AM 34.0769 -83.4819 52° Northeast 385 443 17,800 1,000 Climbing Atlanta Center
Sun 09:43:54 AM 34.1431 -83.3736 54° Northeast 390 449 18,700 850 Climbing Atlanta Center
Sun 09:44:54 AM 34.2092 -83.2678 53° Northeast 390 449 19,500 800 Climbing Atlanta Center
Sun 09:45:54 AM 34.2817 -83.1564 52° Northeast 405 466 20,300 800 Climbing Atlanta Center
Sun 09:46:54 AM 34.3558 -83.0347 54° Northeast 405 466 21,100 700 Climbing Atlanta Center
Sun 09:47:54 AM 34.4236 -82.9206 54° Northeast 419 482 21,700 600 Climbing Atlanta Center
Sun 09:48:54 AM 34.4978 -82.8039 52° Northeast 419 482 22,300 600 Climbing Atlanta Center
Sun 09:49:54 AM 34.5675 -82.6867 54° Northeast 424 488 22,900 600 Climbing Atlanta Center
Sun 09:50:54 AM 34.6433 -82.5719 51° Northeast 424 488 23,500 600 Climbing Atlanta Center
Sun 09:51:54 AM 34.7169 -82.4569 52° Northeast 424 488 24,100 550 Climbing Atlanta Center
Sun 09:52:54 AM 34.7883 -82.3367 54° Northeast 430 495 24,600 500 Climbing Atlanta Center
Sun 09:53:54 AM 34.8617 -82.2136 54° Northeast 437 503 25,100 500 Climbing Atlanta Center
Sun 09:54:54 AM 34.9392 -82.0903 53° Northeast 455 524 25,600 500 Climbing Atlanta Center
Sun 09:55:54 AM 35.0144 -81.9669 53° Northeast 455 524 26,100 500 Climbing Atlanta Center
Sun 09:56:54 AM 35.0850 -81.8381 56° Northeast 455 524 26,600 450 Climbing Atlanta Center
Sun 09:57:54 AM 35.1536 -81.7094 57° Northeast 460 529 27,000 200 Climbing Atlanta Center
Sun 09:58:54 AM 35.2242 -81.5725 58° Northeast 465 535 27,000  Level Atlanta Center
Sun 09:59:54 AM 35.2942 -81.4356 58° Northeast 465 535 27,000  Level Atlanta Center
Sun 10:00:54 AM 35.3644 -81.3011 57° Northeast 465 535 27,000  Level Atlanta Center
Sun 10:01:54 AM 35.4361 -81.1608 58° Northeast 472 543 27,000  Level Atlanta Center
Sun 10:02:54 AM 35.5081 -81.0233 57° Northeast 477 549 27,000  Level Atlanta Center
Sun 10:03:54 AM 35.5817 -80.8853 57° Northeast 483 556 27,000  Level Atlanta Center
Sun 10:04:54 AM 35.6531 -80.7444 58° Northeast 483 556 27,000  Level Atlanta Center
Sun 10:05:54 AM 35.7244 -80.6058 58° Northeast 484 557 27,000  Level Atlanta Center
Sun 10:06:54 AM 35.7956 -80.4647 58° Northeast 484 557 27,000  Level Atlanta Center
Sun 10:07:54 AM 35.8608 -80.3414 57° Northeast 484 557 27,000  Level Atlanta Center
Sun 10:09:28 AM 35.9789 -80.1094 58° Northeast 494 568 27,000  Level Washington Center
Sun 10:10:27 AM 36.0489 -79.9722 58° Northeast 487 560 27,000  Level Washington Center
Sun 10:11:27 AM 36.1267 -79.8378 54° Northeast 480 552 27,000  Level Washington Center
Sun 10:12:28 AM 36.2044 -79.7003 55° Northeast 480 552 27,000  Level Washington Center
Sun 10:13:28 AM 36.2842 -79.5628 54° Northeast 480 552 27,000  Level Washington Center
Sun 10:14:26 AM 36.3575 -79.4297 56° Northeast 473 544 27,000 -51 Level Washington Center
Sun 10:15:26 AM 36.4261 -79.3042 56° Northeast 479 551 26,900 -298 Descending Washington Center
Sun 10:16:27 AM 36.5014 -79.1656 56° Northeast 479 551 26,400 -545 Descending Washington Center
Sun 10:17:27 AM 36.5933 -79.0119 53° Northeast 484 557 25,800 -545 Descending Washington Center
Sun 10:18:28 AM 36.6683 -78.8678 57° Northeast 484 557 25,300 -403 Descending Washington Center
Sun 10:19:26 AM 36.7472 -78.7258 55° Northeast 490 564 25,000 -153 Descending Washington Center
Sun 10:20:26 AM 36.8150 -78.6014 56° Northeast 495 570 25,000  Level Washington Center
Sun 10:21:27 AM 36.9158 -78.4911 41° Northeast 477 549 25,000  Level Washington Center
Sun 10:22:28 AM 37.0308 -78.3992 33° Northeast 477 549 25,000  Level Washington Center
Sun 10:23:28 AM 37.1542 -78.2994 33° Northeast 482 555 25,000  Level Washington Center
Sun 10:24:26 AM 37.2686 -78.2069 33° Northeast 482 555 25,000 -252 Level Washington Center
Sun 10:25:27 AM 37.3683 -78.1292 32° Northeast 482 555 24,500 -1,289 Descending Washington Center
Sun 10:26:27 AM 37.4811 -78.0336 34° Northeast 487 560 22,400 -2,033 Descending Washington Center
Sun 10:27:28 AM 37.5933 -77.9403 33° Northeast 487 560 20,400 -1,983 Descending Washington Center
Sun 10:28:28 AM 37.6994 -77.8489 34° Northeast 475 547 18,400 -1,932 Descending Washington Center
Sun 10:29:26 AM 37.8033 -77.7653 32° Northeast 461 531 16,600 -1,916 Descending Washington Center
Sun 10:30:27 AM 37.8986 -77.6839 34° Northeast 432 497 14,600 -1,967 Descending Washington Center
Sun 10:31:28 AM 37.9936 -77.6047 33° Northeast 419 482 12,600 -2,000 Descending Washington Center
Sun 10:32:27 AM 38.0867 -77.5333 31° Northeast 397 457 10,600 -1,350 Descending Washington Center
Sun 10:33:28 AM 38.1647 -77.4669 34° Northeast 369 425 9,900 -555 Descending Washington Center
Sun 10:34:26 AM 38.2386 -77.4158 29° Northeast 325 374 9,500 -756 Descending Washington Center
Sun 10:35:27 AM 38.3103 -77.3725 25° Northeast 294 338 8,400 -1,041 Descending Washington Center
Sun 10:36:27 AM 38.3875 -77.3586 North 281 323 7,400 -992 Descending Washington Center
Sun 10:37:28 AM 38.4647 -77.3603 359° North 272 313 6,400 -1,008 Descending Washington Center
Sun 10:38:26 AM 38.5397 -77.3647 357° North 272 313 5,400 -857 Descending Washington Center
Sun 10:39:27 AM 38.6167 -77.3667 359° North 272 313 4,700 -696 Descending Washington Center
Sun 10:40:18 AM 38.6833 -77.3667 360° North 273 314 4,100 -343 Descending Potomac TRACON
Sun 10:41:12 AM 38.7333 -77.4333 314° West 253 291 4,100  Level Potomac TRACON

Login

Don't have an account? Register now (free) for customized features, flight alerts, and more!